createdAt,value
2023-05-16T00:01:02.664Z,7.88
2023-05-16T00:03:30.821Z,8.18
2023-05-16T00:05:58.095Z,11.20
2023-05-16T00:08:25.477Z,11.00
2023-05-16T00:10:52.562Z,12.63
2023-05-16T00:13:25.609Z,11.02
2023-05-16T00:15:53.592Z,10.05
2023-05-16T00:18:22.071Z,10.02
2023-05-16T00:20:49.689Z,10.35
2023-05-16T00:23:17.117Z,9.60
2023-05-16T00:25:44.509Z,10.63
2023-05-16T00:28:11.799Z,9.88
2023-05-16T00:30:38.942Z,11.48
2023-05-16T00:33:06.138Z,10.40
2023-05-16T00:35:33.336Z,10.50
2023-05-16T00:38:01.220Z,9.80
2023-05-16T00:40:28.546Z,8.90
2023-05-16T00:42:55.856Z,8.88
2023-05-16T00:45:23.078Z,9.18
2023-05-16T00:47:50.654Z,8.48
2023-05-16T00:50:18.145Z,8.57
2023-05-16T00:52:45.298Z,9.10
2023-05-16T00:55:12.384Z,9.20
2023-05-16T00:57:39.532Z,8.27
2023-05-16T01:00:10.785Z,9.60
2023-05-16T01:02:38.165Z,9.63
2023-05-16T01:05:05.542Z,10.60
2023-05-16T01:07:32.643Z,10.82
2023-05-16T01:09:59.946Z,11.32
2023-05-16T01:12:32.885Z,10.23
2023-05-16T01:15:08.783Z,9.98
2023-05-16T01:18:05.329Z,10.10
2023-05-16T01:20:32.460Z,9.02
2023-05-16T01:23:02.744Z,9.18
2023-05-16T01:25:40.491Z,9.02
2023-05-16T01:28:07.577Z,8.48
2023-05-16T01:30:36.304Z,9.18
2023-05-16T01:33:03.510Z,12.77
2023-05-16T01:35:30.952Z,33.50
2023-05-16T01:37:58.254Z,50.08
2023-05-16T01:40:37.452Z,39.08
2023-05-16T01:43:06.017Z,32.42
2023-05-16T01:45:33.675Z,30.23
2023-05-16T01:48:07.112Z,26.00
2023-05-16T01:50:35.412Z,29.98
2023-05-16T01:53:09.429Z,24.95
2023-05-16T01:55:49.396Z,18.83
2023-05-16T01:58:16.850Z,18.45
2023-05-16T02:00:44.740Z,16.92
2023-05-16T02:03:12.103Z,15.27
2023-05-16T02:05:39.407Z,16.30
2023-05-16T02:08:06.550Z,16.60
2023-05-16T02:10:33.704Z,16.73
2023-05-16T02:13:00.970Z,44.97
2023-05-16T02:15:28.745Z,93.60
2023-05-16T02:17:56.222Z,127.40
2023-05-16T02:20:23.332Z,227.38
2023-05-16T02:22:50.402Z,303.80
2023-05-16T02:25:17.520Z,239.70
2023-05-16T02:27:44.693Z,237.25
2023-05-16T02:30:12.144Z,92.55
2023-05-16T02:32:39.952Z,49.55
2023-05-16T02:35:08.080Z,53.28
2023-05-16T02:37:35.441Z,109.97
2023-05-16T02:40:04.022Z,64.05
2023-05-16T02:42:31.931Z,70.78
2023-05-16T02:44:59.021Z,49.85
2023-05-16T02:47:26.168Z,22.67
2023-05-16T02:49:53.477Z,14.32
2023-05-16T02:52:21.004Z,24.40
2023-05-16T02:54:59.848Z,21.02
2023-05-16T02:57:31.693Z,20.65
2023-05-16T02:59:59.176Z,21.95
2023-05-16T03:02:26.439Z,36.60
2023-05-16T03:04:53.631Z,26.65
2023-05-16T03:07:20.728Z,22.42
2023-05-16T03:09:47.795Z,22.25
2023-05-16T03:12:14.894Z,21.27
2023-05-16T03:14:41.990Z,19.27
2023-05-16T03:17:09.157Z,20.55
2023-05-16T03:19:36.314Z,23.92
2023-05-16T03:22:04.073Z,18.77
2023-05-16T03:24:31.202Z,18.45
2023-05-16T03:26:59.943Z,16.70
2023-05-16T03:29:27.124Z,16.95
2023-05-16T03:31:54.456Z,18.65
2023-05-16T03:34:21.759Z,18.95
2023-05-16T03:36:52.873Z,18.45
2023-05-16T03:39:19.950Z,18.95
2023-05-16T03:41:47.197Z,15.77
2023-05-16T03:44:14.292Z,14.85
2023-05-16T03:46:41.383Z,15.60
2023-05-16T03:49:08.481Z,16.40
2023-05-16T03:51:35.660Z,17.33
2023-05-16T03:54:02.815Z,15.77
2023-05-16T03:56:29.941Z,16.95
2023-05-16T03:58:57.193Z,21.02
2023-05-16T04:01:24.263Z,17.70
2023-05-16T04:03:51.432Z,32.38
2023-05-16T04:06:18.629Z,26.42
2023-05-16T04:08:45.884Z,21.92
2023-05-16T04:11:12.988Z,20.67
2023-05-16T04:13:40.113Z,19.27
2023-05-16T04:16:07.633Z,19.40
2023-05-16T04:18:34.845Z,16.70
2023-05-16T04:21:02.258Z,17.33
2023-05-16T04:23:29.342Z,17.80
2023-05-16T04:25:57.017Z,17.30
2023-05-16T04:28:24.178Z,17.30
2023-05-16T04:30:51.364Z,17.85
2023-05-16T04:33:18.931Z,18.77
2023-05-16T04:35:46.031Z,15.13
2023-05-16T04:38:13.099Z,12.48
2023-05-16T04:40:41.817Z,11.55
2023-05-16T04:43:08.941Z,12.20
2023-05-16T04:45:37.559Z,10.73
2023-05-16T04:48:05.213Z,11.00
2023-05-16T04:50:32.390Z,11.70
2023-05-16T04:52:59.533Z,14.35
2023-05-16T04:55:26.936Z,15.23
2023-05-16T04:57:54.233Z,17.50
2023-05-16T05:00:21.444Z,11.00
2023-05-16T05:02:48.696Z,11.60
2023-05-16T05:05:15.936Z,15.50
2023-05-16T05:07:43.147Z,14.02
2023-05-16T05:10:11.654Z,13.38
2023-05-16T05:12:38.772Z,12.85
2023-05-16T05:15:06.478Z,11.18
2023-05-16T05:17:33.767Z,10.25
2023-05-16T05:20:02.968Z,9.43
2023-05-16T05:22:30.765Z,7.85
2023-05-16T05:24:57.929Z,7.22
2023-05-16T05:27:25.438Z,7.40
2023-05-16T05:29:52.558Z,6.93
2023-05-16T05:32:19.713Z,5.75
2023-05-16T05:34:46.823Z,5.90
2023-05-16T05:37:14.588Z,5.70
2023-05-16T05:39:42.020Z,4.90
2023-05-16T05:42:09.188Z,4.32
2023-05-16T05:44:37.752Z,4.57
2023-05-16T05:47:05.847Z,4.00
2023-05-16T05:49:32.979Z,4.68
2023-05-16T05:52:00.066Z,5.00
2023-05-16T05:54:27.422Z,4.70
2023-05-16T05:56:54.522Z,4.45
2023-05-16T05:59:21.594Z,4.43
2023-05-16T06:01:52.791Z,4.72
2023-05-16T06:04:20.768Z,4.60
2023-05-16T06:06:47.952Z,4.00
2023-05-16T06:09:15.150Z,4.20
2023-05-16T06:11:43.203Z,5.32
2023-05-16T06:14:11.065Z,4.35
2023-05-16T06:16:40.207Z,3.78
2023-05-16T06:19:07.462Z,3.47
2023-05-16T06:21:34.622Z,3.90
2023-05-16T06:24:01.763Z,3.63
2023-05-16T06:26:28.867Z,3.55
2023-05-16T06:28:56.101Z,4.30
2023-05-16T06:31:23.254Z,4.60
2023-05-16T06:33:50.422Z,4.00
2023-05-16T06:36:17.559Z,3.65
2023-05-16T06:38:45.277Z,4.13
2023-05-16T06:41:12.340Z,5.20
2023-05-16T06:43:39.477Z,11.27
2023-05-16T06:46:06.906Z,4.40
2023-05-16T06:48:34.062Z,4.30
2023-05-16T06:51:01.351Z,4.50
2023-05-16T06:53:28.868Z,3.70
2023-05-16T06:55:56.166Z,4.18
2023-05-16T06:58:23.294Z,4.50
2023-05-16T07:00:50.722Z,4.07
2023-05-16T07:03:18.472Z,3.55
2023-05-16T07:05:45.799Z,4.47
2023-05-16T07:08:13.050Z,4.10
2023-05-16T07:10:40.430Z,4.43
2023-05-16T07:13:07.669Z,3.90
2023-05-16T07:15:34.944Z,3.88
2023-05-16T07:18:02.139Z,4.15
2023-05-16T07:20:29.314Z,3.50
2023-05-16T07:22:57.714Z,3.72
2023-05-16T07:25:25.403Z,5.03
2023-05-16T07:27:52.782Z,6.50
2023-05-16T07:30:20.784Z,3.30
2023-05-16T07:32:47.992Z,14.40
2023-05-16T07:35:15.562Z,8.52
2023-05-16T07:37:43.509Z,5.90
2023-05-16T07:40:11.592Z,3.50
2023-05-16T07:42:38.757Z,3.50
2023-05-16T07:45:07.101Z,9.90
2023-05-16T07:47:34.423Z,4.00
2023-05-16T07:50:01.593Z,5.20
2023-05-16T07:52:29.052Z,4.05
2023-05-16T07:54:56.487Z,4.10
2023-05-16T07:57:25.136Z,4.85
2023-05-16T07:59:52.866Z,4.93
2023-05-16T08:02:20.265Z,3.80
2023-05-16T08:04:48.879Z,3.40
2023-05-16T08:07:16.111Z,2.88
2023-05-16T08:09:43.259Z,3.30
2023-05-16T08:12:10.450Z,3.88
2023-05-16T08:14:37.678Z,3.92
2023-05-16T08:17:04.919Z,3.65
2023-05-16T08:19:33.077Z,3.63
2023-05-16T08:22:00.313Z,4.20
2023-05-16T08:24:28.886Z,4.22
2023-05-16T08:26:56.037Z,3.45
2023-05-16T08:29:23.190Z,3.55
2023-05-16T08:31:50.426Z,3.35
2023-05-16T08:34:17.661Z,3.50
2023-05-16T08:36:44.872Z,3.50
2023-05-16T08:39:13.009Z,4.10
2023-05-16T08:41:40.380Z,3.60
2023-05-16T08:44:07.641Z,3.70
2023-05-16T08:46:35.893Z,3.33
2023-05-16T08:49:08.043Z,3.40
2023-05-16T08:51:35.621Z,3.78
2023-05-16T08:54:10.570Z,5.57
2023-05-16T08:56:38.005Z,3.33
2023-05-16T08:59:05.117Z,3.92
2023-05-16T09:01:32.580Z,3.88
2023-05-16T09:04:00.297Z,3.90
2023-05-16T09:06:28.008Z,3.80
2023-05-16T09:08:55.433Z,3.97
2023-05-16T09:11:22.625Z,3.75
2023-05-16T09:13:49.957Z,3.42
2023-05-16T09:16:17.996Z,7.80
2023-05-16T09:18:46.472Z,3.85
2023-05-16T09:21:13.854Z,3.25
2023-05-16T09:23:41.716Z,3.30
2023-05-16T09:26:08.933Z,3.60
2023-05-16T09:28:38.223Z,3.33
2023-05-16T09:31:05.940Z,3.28
2023-05-16T09:33:33.227Z,3.80
2023-05-16T09:36:00.775Z,4.05
2023-05-16T09:38:28.510Z,3.28
2023-05-16T09:40:55.960Z,5.38
2023-05-16T09:43:26.900Z,3.58
2023-05-16T09:45:54.300Z,3.50
2023-05-16T09:48:21.811Z,6.75
2023-05-16T09:50:52.510Z,3.33
2023-05-16T09:53:26.657Z,4.13
2023-05-16T09:56:13.173Z,3.60
2023-05-16T09:58:40.950Z,3.80
2023-05-16T10:01:08.299Z,3.50
2023-05-16T10:03:36.659Z,3.63
2023-05-16T10:06:04.296Z,3.70
2023-05-16T10:08:32.397Z,3.95
2023-05-16T10:10:59.580Z,3.40
2023-05-16T10:13:30.831Z,3.28
2023-05-16T10:15:58.402Z,3.47
2023-05-16T10:18:27.669Z,3.33
2023-05-16T10:20:54.823Z,3.35
2023-05-16T10:23:22.616Z,4.45
2023-05-16T10:25:49.993Z,3.40
2023-05-16T10:28:17.267Z,9.75
2023-05-16T10:30:46.490Z,3.53
2023-05-16T10:33:14.145Z,3.33
2023-05-16T10:35:41.464Z,3.50
2023-05-16T10:38:09.576Z,3.72
2023-05-16T10:40:36.834Z,3.55
2023-05-16T10:43:04.545Z,3.80
2023-05-16T10:45:32.230Z,3.30
2023-05-16T10:48:00.305Z,3.25
2023-05-16T10:50:40.499Z,3.30
2023-05-16T10:53:13.735Z,3.70
2023-05-16T10:55:41.067Z,3.25
2023-05-16T10:58:08.554Z,3.20
2023-05-16T11:00:35.706Z,3.40
2023-05-16T11:03:11.390Z,5.93
2023-05-16T11:05:38.662Z,3.70
2023-05-16T11:08:06.317Z,3.80
2023-05-16T11:10:33.521Z,3.95
2023-05-16T11:13:04.078Z,3.95
2023-05-16T11:15:34.733Z,3.42
2023-05-16T11:18:08.728Z,3.75
2023-05-16T11:20:39.279Z,3.33
2023-05-16T11:23:22.722Z,40.80
2023-05-16T11:25:52.662Z,4.95
2023-05-16T11:28:20.047Z,4.80
2023-05-16T11:30:52.064Z,4.57
2023-05-16T11:33:19.419Z,4.20
2023-05-16T11:36:13.929Z,4.60
2023-05-16T11:38:43.830Z,4.82
2023-05-16T11:41:11.511Z,4.00
2023-05-16T11:43:39.945Z,4.55
2023-05-16T11:46:07.821Z,4.22
2023-05-16T11:48:36.560Z,4.20
2023-05-16T11:51:04.170Z,3.92
2023-05-16T11:53:31.334Z,3.92
2023-05-16T11:56:01.457Z,3.90
2023-05-16T11:58:29.036Z,4.18
2023-05-16T12:00:56.235Z,4.57
2023-05-16T12:03:24.298Z,5.55
2023-05-16T12:05:55.450Z,10.07
2023-05-16T12:08:22.799Z,4.45
2023-05-16T12:10:51.527Z,7.47
2023-05-16T12:13:21.770Z,5.68
2023-05-16T12:15:49.007Z,4.30
2023-05-16T12:18:16.678Z,6.03
2023-05-16T12:20:44.494Z,7.40
2023-05-16T12:23:12.600Z,8.10
2023-05-16T12:25:45.824Z,8.38
2023-05-16T12:28:13.272Z,6.40
2023-05-16T12:30:45.006Z,4.05
2023-05-16T12:33:12.972Z,6.32
2023-05-16T12:35:40.800Z,7.57
2023-05-16T12:38:08.609Z,4.82
2023-05-16T12:40:37.483Z,7.25
2023-05-16T12:43:04.672Z,5.15
2023-05-16T12:45:34.068Z,4.78
2023-05-16T12:48:08.766Z,4.40
2023-05-16T12:50:36.775Z,4.38
2023-05-16T12:53:04.119Z,4.00
2023-05-16T12:55:31.597Z,4.55
2023-05-16T12:57:58.827Z,4.20
2023-05-16T13:00:26.494Z,4.22
2023-05-16T13:02:54.638Z,4.10
2023-05-16T13:05:23.398Z,4.93
2023-05-16T13:07:53.621Z,4.55
2023-05-16T13:10:20.960Z,4.57
2023-05-16T13:12:48.076Z,4.60
2023-05-16T13:15:15.287Z,4.75
2023-05-16T13:17:44.154Z,4.38
2023-05-16T13:20:15.197Z,4.57
2023-05-16T13:22:42.964Z,4.35
2023-05-16T13:25:10.703Z,4.95
2023-05-16T13:27:38.019Z,4.82
2023-05-16T13:30:05.381Z,5.18
2023-05-16T13:32:32.894Z,4.50
2023-05-16T13:35:00.123Z,4.70
2023-05-16T13:37:27.356Z,5.75
2023-05-16T13:39:57.697Z,5.05
2023-05-16T13:42:27.805Z,5.20
2023-05-16T13:44:54.973Z,4.50
2023-05-16T13:47:22.147Z,4.07
2023-05-16T13:49:49.332Z,4.18
2023-05-16T13:52:16.457Z,4.55
2023-05-16T13:54:43.609Z,4.18
2023-05-16T13:57:11.455Z,4.05
2023-05-16T14:00:03.999Z,4.50
2023-05-16T14:02:26.401Z,4.13
2023-05-16T14:04:53.991Z,4.18
2023-05-16T14:07:21.127Z,4.18
2023-05-16T14:09:48.309Z,4.10
2023-05-16T14:12:15.442Z,4.10
2023-05-16T14:14:42.607Z,4.78
2023-05-16T14:17:09.797Z,4.50
2023-05-16T14:19:37.271Z,4.72
2023-05-16T14:22:04.384Z,7.30
2023-05-16T14:24:31.574Z,4.80
2023-05-16T14:26:58.709Z,5.95
2023-05-16T14:29:26.067Z,6.35
2023-05-16T14:31:53.623Z,5.82
2023-05-16T14:34:22.285Z,6.82
2023-05-16T14:36:49.686Z,4.70
2023-05-16T14:39:17.571Z,4.57
2023-05-16T14:41:44.696Z,5.00
2023-05-16T14:44:12.667Z,4.97
2023-05-16T14:46:40.090Z,5.30
2023-05-16T14:49:07.353Z,5.00
2023-05-16T14:51:34.545Z,4.78
2023-05-16T14:54:01.741Z,4.95
2023-05-16T14:56:28.904Z,5.15
2023-05-16T14:58:56.034Z,5.20
2023-05-16T15:01:23.265Z,5.03
2023-05-16T15:03:55.286Z,6.05
2023-05-16T15:06:24.002Z,7.78
2023-05-16T15:08:51.431Z,8.55
2023-05-16T15:11:18.574Z,8.57
2023-05-16T15:13:46.301Z,12.18
2023-05-16T15:16:13.474Z,9.70
2023-05-16T15:18:41.015Z,8.68
2023-05-16T15:21:09.078Z,11.02
2023-05-16T15:23:36.677Z,10.93
2023-05-16T15:26:04.291Z,9.50
2023-05-16T15:28:31.428Z,8.00
2023-05-16T15:30:58.570Z,4.97
2023-05-16T15:33:25.792Z,3.97
2023-05-16T15:35:53.043Z,6.30
2023-05-16T15:38:20.163Z,5.63
2023-05-16T15:40:50.604Z,7.13
2023-05-16T15:43:22.328Z,6.70
2023-05-16T15:45:49.671Z,7.13
2023-05-16T15:48:16.854Z,5.68
2023-05-16T15:50:44.039Z,5.15
2023-05-16T15:53:11.161Z,5.20
2023-05-16T15:55:38.326Z,39.38
2023-05-16T15:58:05.590Z,21.27
2023-05-16T16:00:32.782Z,10.00
2023-05-16T16:02:59.997Z,6.50
2023-05-16T16:05:27.373Z,10.50
2023-05-16T16:07:54.675Z,8.52
2023-05-16T16:10:22.728Z,14.05
2023-05-16T16:13:02.495Z,7.03
2023-05-16T16:15:32.814Z,7.80
2023-05-16T16:18:00.865Z,22.90
2023-05-16T16:20:28.256Z,13.70
2023-05-16T16:22:55.581Z,11.30
2023-05-16T16:25:22.896Z,7.80
2023-05-16T16:27:50.236Z,8.23
2023-05-16T16:30:17.350Z,8.90
2023-05-16T16:32:44.488Z,24.13
2023-05-16T16:35:11.995Z,11.00
2023-05-16T16:37:39.234Z,12.55
2023-05-16T16:40:09.145Z,17.48
2023-05-16T16:42:38.620Z,32.45
2023-05-16T16:45:06.175Z,25.50
2023-05-16T16:47:33.577Z,17.30
2023-05-16T16:50:01.448Z,15.52
2023-05-16T16:52:28.785Z,21.13
2023-05-16T16:54:56.037Z,18.25
2023-05-16T16:57:23.328Z,23.02
2023-05-16T16:59:50.626Z,22.98
2023-05-16T17:02:17.927Z,15.18
2023-05-16T17:04:45.303Z,18.60
2023-05-16T17:07:12.455Z,20.83
2023-05-16T17:09:42.139Z,38.88
2023-05-16T17:12:18.640Z,47.08
2023-05-16T17:14:46.650Z,52.10
2023-05-16T17:17:14.036Z,47.28
2023-05-16T17:19:41.277Z,40.97
2023-05-16T17:22:08.825Z,34.45
2023-05-16T17:24:35.964Z,24.65
2023-05-16T17:27:03.196Z,20.85
2023-05-16T17:29:30.655Z,27.73
2023-05-16T17:31:57.778Z,22.33
2023-05-16T17:34:24.957Z,25.27
2023-05-16T17:36:52.092Z,30.17
2023-05-16T17:39:20.457Z,33.53
2023-05-16T17:41:47.693Z,34.72
2023-05-16T17:44:14.861Z,35.60
2023-05-16T17:46:42.568Z,241.27
2023-05-16T17:49:10.294Z,37.13
2023-05-16T17:51:46.294Z,36.13
2023-05-16T17:54:15.508Z,41.58
2023-05-16T17:56:42.879Z,49.17
2023-05-16T17:59:10.126Z,40.13
2023-05-16T18:01:38.255Z,44.10
2023-05-16T18:04:06.907Z,54.97
2023-05-16T18:06:34.926Z,52.22
2023-05-16T18:09:05.444Z,52.30
2023-05-16T18:11:35.985Z,59.35
2023-05-16T18:14:03.191Z,54.10
2023-05-16T18:16:30.812Z,49.05
2023-05-16T18:19:00.678Z,41.22
2023-05-16T18:21:27.907Z,43.35
2023-05-16T18:23:59.094Z,43.97
2023-05-16T18:26:29.678Z,45.65
2023-05-16T18:28:57.005Z,50.92
2023-05-16T18:31:24.129Z,48.55
2023-05-16T18:33:51.282Z,51.63
2023-05-16T18:36:18.788Z,53.00
2023-05-16T18:38:46.197Z,63.38
2023-05-16T18:41:13.412Z,68.28
2023-05-16T18:43:40.572Z,69.88
2023-05-16T18:46:07.718Z,80.35
2023-05-16T18:48:36.246Z,66.13
2023-05-16T18:51:03.604Z,57.28
2023-05-16T18:53:30.899Z,53.72
2023-05-16T18:55:58.552Z,46.63
2023-05-16T18:58:25.711Z,34.30
2023-05-16T19:00:52.926Z,32.67
2023-05-16T19:03:20.170Z,31.92
2023-05-16T19:05:47.779Z,25.65
2023-05-16T19:08:15.036Z,22.67
2023-05-16T19:10:42.185Z,24.90
2023-05-16T19:13:09.414Z,24.05
2023-05-16T19:15:36.654Z,19.90
2023-05-16T19:18:04.847Z,18.65
2023-05-16T19:20:32.188Z,25.88
2023-05-16T19:22:59.319Z,22.88
2023-05-16T19:25:27.023Z,24.17
2023-05-16T19:27:54.404Z,24.60
2023-05-16T19:30:21.666Z,32.78
2023-05-16T19:32:49.057Z,46.67
2023-05-16T19:35:19.034Z,53.25
2023-05-16T19:37:46.412Z,32.20
2023-05-16T19:40:16.309Z,24.00
2023-05-16T19:42:44.408Z,18.65
2023-05-16T19:45:11.662Z,13.40
2023-05-16T19:47:38.928Z,15.20
2023-05-16T19:50:06.928Z,19.73
2023-05-16T19:52:34.132Z,14.25
2023-05-16T19:55:01.361Z,18.83
2023-05-16T19:57:28.797Z,17.75
2023-05-16T19:59:55.994Z,14.40
2023-05-16T20:02:24.444Z,18.70
2023-05-16T20:04:52.136Z,18.58
2023-05-16T20:07:19.371Z,11.85
2023-05-16T20:09:46.513Z,12.48
2023-05-16T20:12:13.762Z,13.95
2023-05-16T20:14:41.034Z,9.35
2023-05-16T20:17:08.220Z,7.43
2023-05-16T20:19:37.483Z,10.55
2023-05-16T20:22:04.823Z,12.00
2023-05-16T20:24:31.941Z,12.10
2023-05-16T20:26:59.247Z,13.32
2023-05-16T20:29:26.400Z,12.55
2023-05-16T20:31:53.637Z,9.93
2023-05-16T20:34:20.816Z,11.00
2023-05-16T20:36:47.947Z,9.98
2023-05-16T20:39:15.123Z,9.52
2023-05-16T20:41:42.267Z,11.60
2023-05-16T20:44:09.478Z,9.77
2023-05-16T20:46:36.954Z,10.50
2023-05-16T20:49:04.367Z,10.45
2023-05-16T20:51:32.040Z,8.95
2023-05-16T20:53:59.338Z,8.65
2023-05-16T20:56:26.537Z,8.63
2023-05-16T20:58:53.670Z,8.45
2023-05-16T21:01:21.293Z,9.20
2023-05-16T21:03:48.492Z,10.80
2023-05-16T21:06:15.676Z,12.15
2023-05-16T21:08:42.812Z,9.77
2023-05-16T21:11:09.958Z,9.82
2023-05-16T21:13:37.099Z,9.63
2023-05-16T21:16:04.260Z,10.40
2023-05-16T21:18:31.619Z,9.60
2023-05-16T21:20:58.824Z,11.77
2023-05-16T21:23:25.949Z,11.98
2023-05-16T21:25:53.106Z,13.50
2023-05-16T21:28:20.302Z,13.70
2023-05-16T21:30:47.418Z,13.20
2023-05-16T21:33:14.639Z,11.48
2023-05-16T21:35:41.898Z,10.05
2023-05-16T21:38:09.036Z,12.05
2023-05-16T21:40:36.197Z,10.43
2023-05-16T21:43:03.323Z,10.15
2023-05-16T21:45:30.718Z,9.20
2023-05-16T21:47:57.996Z,7.05
2023-05-16T21:50:25.283Z,7.97
2023-05-16T21:52:52.407Z,8.30
2023-05-16T21:55:19.552Z,8.70
2023-05-16T21:57:46.702Z,9.88
2023-05-16T22:00:14.170Z,10.05
2023-05-16T22:02:41.449Z,12.32
2023-05-16T22:05:08.894Z,14.00
2023-05-16T22:07:36.512Z,14.77
2023-05-16T22:10:03.795Z,18.02
2023-05-16T22:12:31.051Z,16.58
2023-05-16T22:14:58.191Z,17.23
2023-05-16T22:17:25.391Z,16.67
2023-05-16T22:19:52.569Z,13.18
2023-05-16T22:22:20.085Z,10.98
2023-05-16T22:24:47.261Z,8.02
2023-05-16T22:27:14.431Z,9.02
2023-05-16T22:29:41.561Z,10.10
2023-05-16T22:32:09.040Z,28.70
2023-05-16T22:34:39.432Z,12.93
2023-05-16T22:37:07.253Z,15.27
2023-05-16T22:39:34.437Z,12.95
2023-05-16T22:42:01.633Z,11.18
2023-05-16T22:44:29.013Z,14.73
2023-05-16T22:46:56.330Z,13.80
2023-05-16T22:49:23.430Z,11.52
2023-05-16T22:51:50.942Z,13.95
2023-05-16T22:54:18.183Z,18.05
2023-05-16T22:56:45.287Z,16.33
2023-05-16T22:59:12.629Z,14.05
2023-05-16T23:01:39.888Z,14.02
2023-05-16T23:04:07.165Z,14.27
2023-05-16T23:06:34.434Z,14.27
2023-05-16T23:09:02.507Z,15.05
2023-05-16T23:11:29.644Z,16.17
2023-05-16T23:13:56.829Z,17.50
2023-05-16T23:16:23.997Z,17.52
2023-05-16T23:18:51.294Z,17.85
2023-05-16T23:21:18.518Z,18.48
2023-05-16T23:23:45.688Z,15.98
2023-05-16T23:26:12.811Z,15.50
2023-05-16T23:28:39.978Z,15.38
2023-05-16T23:31:07.137Z,15.40
2023-05-16T23:33:35.767Z,14.20
2023-05-16T23:36:02.949Z,15.20
2023-05-16T23:38:30.109Z,14.73
2023-05-16T23:40:57.232Z,12.23
2023-05-16T23:43:24.442Z,12.55
2023-05-16T23:45:51.592Z,12.77
2023-05-16T23:48:18.954Z,13.07
2023-05-16T23:50:46.109Z,14.07
2023-05-16T23:53:13.301Z,12.75
2023-05-16T23:55:40.408Z,13.27
2023-05-16T23:58:07.562Z,15.35
